Time,TemperatureF,DewpointF,PressureIn,WindDirection,WindDirectionDegrees,WindSpeedMPH,WindSpeedGustMPH,Humidity,HourlyPrecipIn,Conditions,Clouds,dailyrainin,SoftwareType,DateUTC
2013-02-10 01:00:00,31.0,-99.9,-100.00,SW,221,2.0,5.0,-999,-99.99,,,-99.99,,2013-02-10 09:00:00,
2013-02-10 01:52:00,31.0,-99.9,-100.00,SW,221,2.0,5.0,-999,-99.99,,,-99.99,,2013-02-10 09:52:00,
2013-02-10 03:00:00,32.0,-99.9,-100.00,SW,217,4.0,7.0,-999,-99.99,,,-99.99,,2013-02-10 11:00:00,
2013-02-10 03:52:00,32.0,-99.9,-100.00,SW,217,4.0,7.0,-999,-99.99,,,-99.99,,2013-02-10 11:52:00,
2013-02-10 05:00:00,29.0,-99.9,-100.00,South,189,7.0,7.0,-999,-99.99,,,-99.99,,2013-02-10 13:00:00,
2013-02-10 05:52:00,29.0,-99.9,-100.00,South,189,7.0,7.0,-999,-99.99,,,-99.99,,2013-02-10 13:52:00,
2013-02-10 07:00:00,28.0,-99.9,-100.00,South,184,4.0,7.0,-999,-99.99,,,-99.99,,2013-02-10 15:00:00,
2013-02-10 07:52:00,28.0,-99.9,-100.00,South,184,4.0,7.0,-999,-99.99,,,-99.99,,2013-02-10 15:52:00,
2013-02-10 09:00:00,37.0,-99.9,-100.00,SSW,198,6.0,7.0,-999,-99.99,,,-99.99,,2013-02-10 17:00:00,
2013-02-10 09:53:00,37.0,-99.9,-100.00,SSW,198,6.0,7.0,-999,-99.99,,,-99.99,,2013-02-10 17:53:00,
2013-02-10 11:00:00,47.0,-99.9,-100.00,SW,217,5.0,5.0,-999,-99.99,,,-99.99,,2013-02-10 19:00:00,
2013-02-10 11:52:00,47.0,-99.9,-100.00,SW,217,5.0,5.0,-999,-99.99,,,-99.99,,2013-02-10 19:52:00,
2013-02-10 13:00:00,50.0,-99.9,-100.00,ENE,57,2.0,3.0,-999,-99.99,,,-99.99,,2013-02-10 21:00:00,
2013-02-10 13:52:00,50.0,-99.9,-100.00,ENE,57,2.0,3.0,-999,-99.99,,,-99.99,,2013-02-10 21:52:00,
2013-02-10 15:00:00,51.0,-99.9,-100.00,SW,223,4.0,6.0,-999,-99.99,,,-99.99,,2013-02-10 23:00:00,
2013-02-10 15:53:00,51.0,-99.9,-100.00,SW,223,4.0,6.0,-999,-99.99,,,-99.99,,2013-02-10 23:53:00,
2013-02-10 17:00:00,45.0,-99.9,-100.00,WSW,238,2.0,6.0,-999,-99.99,,,-99.99,,2013-02-11 01:00:00,
2013-02-10 17:52:00,45.0,-99.9,-100.00,WSW,238,2.0,6.0,-999,-99.99,,,-99.99,,2013-02-11 01:52:00,
2013-02-10 19:00:00,39.0,-99.9,-100.00,WSW,246,3.0,4.0,-999,-99.99,,,-99.99,,2013-02-11 03:00:00,
2013-02-10 19:52:00,39.0,-99.9,-100.00,WSW,246,3.0,4.0,-999,-99.99,,,-99.99,,2013-02-11 03:52:00,
2013-02-10 21:00:00,40.0,-99.9,-100.00,West,274,4.0,6.0,-999,-99.99,,,-99.99,,2013-02-11 05:00:00,
2013-02-10 21:53:00,40.0,-99.9,-100.00,West,274,4.0,6.0,-999,-99.99,,,-99.99,,2013-02-11 05:53:00,
2013-02-10 23:00:00,37.0,-99.9,-100.00,SSW,197,1.0,2.0,-999,-99.99,,,-99.99,,2013-02-11 07:00:00,
2013-02-10 23:52:00,37.0,-99.9,-100.00,SSW,197,1.0,2.0,-999,-99.99,,,-99.99,,2013-02-11 07:52:00,